Time;durP1;ratioP1;P1;durP2;ratioP2;P2;SDS_P1;SDS_P2;PMS_P1;PMS_P2;Temp;Humidity;BMP_temperature;BMP_pressure;BME280_temperature;BME280_humidity;BME280_pressure;Samples;Min_cycle;Max_cycle;Signal;HPM_P1;HPM_P2
2023/11/25 00:00:02;;;;;;;13.57;10.02;;;9.20;96.70;;;;;;4863455;29;20064;-66
2023/11/25 00:02:39;;;;;;;15.75;10.43;;;9.10;96.70;;;;;;4905719;29;20060;-67
2023/11/25 00:05:35;;;;;;;15.65;10.18;;;8.90;96.70;;;;;;4904867;29;20469;-66
2023/11/25 00:13:16;;;;;;;14.35;9.85;;;9.00;96.70;;;;;;4772983;30;20557;-66
2023/11/25 00:15:52;;;;;;;16.00;10.52;;;9.00;96.70;;;;;;4771542;30;20482;-67
2023/11/25 00:19:15;;;;;;;16.55;11.10;;;9.00;96.70;;;;;;4829995;29;20069;-67
2023/11/25 00:22:45;;;;;;;17.35;11.38;;;8.90;96.70;;;;;;4822024;29;20060;-67
2023/11/25 00:28:56;;;;;;;17.30;12.13;;;8.80;96.70;;;;;;4817415;29;20539;-67
2023/11/25 00:32:10;;;;;;;17.88;12.50;;;8.70;96.70;;;;;;4831630;29;20515;-67
2023/11/25 00:34:52;;;;;;;18.85;13.55;;;8.70;96.70;;;;;;4810342;29;20132;-66
2023/11/25 00:37:46;;;;;;;18.92;13.38;;;8.60;96.70;;;;;;4810608;29;20058;-66
2023/11/25 00:40:25;;;;;;;18.63;13.20;;;8.60;96.70;;;;;;4805686;29;20564;-66
2023/11/25 00:45:51;;;;;;;19.30;13.75;;;8.70;96.70;;;;;;4883146;29;20074;-67
2023/11/25 00:48:23;;;;;;;16.42;12.80;;;8.60;96.70;;;;;;4900028;29;20048;-67
2023/11/25 00:50:52;;;;;;;18.23;14.15;;;8.60;96.70;;;;;;4913485;29;20388;-67
2023/11/25 00:53:23;;;;;;;17.27;13.23;;;8.50;96.70;;;;;;4911837;29;20679;-67
2023/11/25 00:55:53;;;;;;;19.02;13.60;;;8.50;96.70;;;;;;4909779;29;20056;-66
2023/11/25 00:59:00;;;;;;;18.08;13.15;;;8.60;96.70;;;;;;4906343;29;20052;-66
2023/11/25 01:01:34;;;;;;;17.55;12.93;;;8.60;96.70;;;;;;4912499;29;20044;-68
2023/11/25 01:04:46;;;;;;;20.52;12.88;;;8.50;96.70;;;;;;4909229;29;20119;-67
2023/11/25 01:07:18;;;;;;;16.23;11.43;;;8.50;96.70;;;;;;4913518;29;20044;-67
2023/11/25 01:09:50;;;;;;;18.33;11.80;;;8.40;96.70;;;;;;4909944;29;20698;-66
2023/11/25 01:12:20;;;;;;;14.10;10.80;;;8.40;96.70;;;;;;4897206;29;20480;-66
2023/11/25 01:15:19;;;;;;;19.60;11.77;;;8.50;96.70;;;;;;4911866;29;20044;-66
2023/11/25 01:22:06;;;;;;;17.42;9.52;;;8.40;96.70;;;;;;4921755;29;20047;-67
2023/11/25 01:25:05;;;;;;;16.98;9.30;;;8.50;96.70;;;;;;4927715;29;20106;-67
2023/11/25 01:27:45;;;;;;;12.65;8.95;;;8.50;96.70;;;;;;4905697;29;20055;-66
2023/11/25 01:30:25;;;;;;;13.18;9.05;;;8.50;96.70;;;;;;4901410;29;20087;-66
2023/11/25 01:34:24;;;;;;;12.48;8.57;;;8.60;96.70;;;;;;4883181;29;20530;-67
2023/11/25 01:36:49;;;;;;;11.40;8.27;;;8.60;96.70;;;;;;4925129;29;20657;-70
2023/11/25 01:39:24;;;;;;;18.33;8.80;;;8.50;96.70;;;;;;4928826;29;20043;-70
2023/11/25 01:42:19;;;;;;;;;;;8.60;96.70;;;;;;4927504;29;20132;-70
2023/11/25 01:45:50;;;;;;;15.95;8.18;;;8.40;96.70;;;;;;4929433;29;19984;-67
2023/11/25 01:49:14;;;;;;;10.82;7.90;;;8.40;96.70;;;;;;4929713;29;20404;-67
2023/11/25 01:51:49;;;;;;;12.25;8.63;;;8.40;96.70;;;;;;4919174;29;20428;-66
2023/11/25 01:54:22;;;;;;;12.57;8.38;;;8.30;96.70;;;;;;4912713;29;20140;-66
2023/11/25 01:56:58;;;;;;;12.50;9.23;;;8.40;96.70;;;;;;4932150;29;20083;-66
2023/11/25 01:59:55;;;;;;;14.52;9.35;;;8.30;96.70;;;;;;4918138;29;20067;-66
2023/11/25 02:11:23;;;;;;;12.38;9.68;;;8.20;96.70;;;;;;4916453;29;20650;-66
2023/11/25 02:15:10;;;;;;;14.25;9.65;;;8.20;96.70;;;;;;4922463;29;20074;-67
2023/11/25 02:17:52;;;;;;;;;;;;;;;;;;;;;
2023/11/25 02:25:12;;;;;;;14.38;9.60;;;8.10;96.70;;;;;;4923359;29;20078;-67
2023/11/25 02:27:41;;;;;;;15.63;9.43;;;8.10;96.70;;;;;;4926966;29;20423;-67
2023/11/25 02:30:12;;;;;;;16.33;10.25;;;8.00;96.70;;;;;;4906517;29;20572;-66
2023/11/25 02:32:41;;;;;;;16.00;10.40;;;8.10;96.70;;;;;;4910459;29;20560;-66
2023/11/25 02:35:20;;;;;;;14.70;10.30;;;8.10;96.70;;;;;;4928772;29;20066;-66
2023/11/25 02:37:52;;;;;;;11.65;9.68;;;8.10;96.70;;;;;;4928330;29;20059;-66
2023/11/25 02:41:00;;;;;;;16.20;10.35;;;8.10;96.70;;;;;;4923989;29;20059;-68
2023/11/25 02:47:10;;;;;;;14.50;9.63;;;8.10;96.70;;;;;;4905387;29;20102;-67
2023/11/25 02:49:42;;;;;;;15.55;10.10;;;8.00;96.70;;;;;;4930662;29;20159;-66
2023/11/25 02:52:18;;;;;;;13.73;9.85;;;8.00;96.70;;;;;;4927797;29;20039;-66
2023/11/25 02:54:49;;;;;;;12.48;9.80;;;8.00;96.70;;;;;;4926128;29;20119;-66
2023/11/25 02:58:07;;;;;;;14.30;9.73;;;8.00;96.70;;;;;;4930454;29;20073;-67
2023/11/25 03:00:41;;;;;;;14.03;10.60;;;7.90;96.70;;;;;;4927464;29;20403;-67
2023/11/25 03:03:16;;;;;;;15.27;10.43;;;7.90;96.70;;;;;;4925009;29;20047;-66
2023/11/25 03:05:52;;;;;;;12.52;9.88;;;7.90;96.70;;;;;;4926609;29;20695;-67
2023/11/25 03:08:48;;;;;;;16.27;9.73;;;7.90;96.70;;;;;;4922293;29;20650;-66
2023/11/25 03:11:20;;;;;;;12.13;8.90;;;7.90;96.70;;;;;;4930601;29;20047;-66
2023/11/25 03:14:29;;;;;;;16.65;9.95;;;7.90;96.70;;;;;;4869901;29;20076;-66
2023/11/25 03:20:54;;;;;;;13.85;8.48;;;7.80;96.70;;;;;;4861325;29;20054;-67
2023/11/25 03:23:41;;;;;;;12.63;8.52;;;7.70;96.70;;;;;;4854724;29;20049;-67
2023/11/25 03:26:12;;;;;;;11.77;7.68;;;7.70;96.70;;;;;;4868328;29;20656;-66
2023/11/25 03:28:43;;;;;;;8.75;7.00;;;7.70;96.70;;;;;;4868368;29;20492;-66
2023/11/25 03:31:20;;;;;;;;;;;7.70;96.70;;;;;;4852662;29;20049;-67
2023/11/25 03:34:04;;;;;;;10.57;7.35;;;7.70;96.70;;;;;;4873521;29;19932;-66
2023/11/25 03:36:45;;;;;;;8.75;6.97;;;7.70;96.70;;;;;;4877801;29;20414;-67
2023/11/25 03:40:17;;;;;;;10.38;7.00;;;7.60;96.70;;;;;;4842224;29;20049;-66
2023/11/25 03:44:14;;;;;;;10.00;7.25;;;7.60;96.70;;;;;;4870966;29;20109;-66
2023/11/25 03:46:45;;;;;;;10.35;6.43;;;7.50;96.70;;;;;;4905857;29;20048;-67
2023/11/25 03:49:20;;;;;;;12.52;7.05;;;7.50;96.70;;;;;;4904179;29;20037;-67
2023/11/25 03:52:16;;;;;;;9.93;6.93;;;7.50;96.70;;;;;;4891561;29;20178;-66
2023/11/25 03:54:44;;;;;;;8.10;6.55;;;7.50;96.70;;;;;;4881715;29;20148;-66
2023/11/25 03:57:43;;;;;;;10.10;6.53;;;7.50;96.70;;;;;;4906236;29;20526;-67
2023/11/25 04:00:59;;;;;;;9.85;6.93;;;7.50;96.70;;;;;;4849031;29;20092;-66
2023/11/25 04:08:55;;;;;;;7.82;6.20;;;7.40;96.70;;;;;;4780634;29;20054;-67
2023/11/25 04:11:24;;;;;;;9.45;5.97;;;7.40;96.70;;;;;;4786607;29;20420;-66
2023/11/25 04:15:12;;;;;;;;;;;;;;;;;;;;;
2023/11/25 04:18:07;;;;;;;8.93;5.97;;;7.60;96.70;;;;;;4815785;29;20088;-67
2023/11/25 04:20:41;;;;;;;10.98;6.45;;;7.60;96.70;;;;;;4850859;29;20190;-67
2023/11/25 04:23:16;;;;;;;10.10;6.93;;;7.30;96.70;;;;;;4867229;29;20403;-67
2023/11/25 04:25:58;;;;;;;8.65;7.38;;;7.30;96.70;;;;;;4870385;29;20049;-67
2023/11/25 04:33:22;;;;;;;11.05;7.68;;;7.20;96.70;;;;;;4814028;29;20057;-67
2023/11/25 04:35:55;;;;;;;9.98;7.57;;;7.40;96.70;;;;;;4824593;29;20553;-67
2023/11/25 04:38:53;;;;;;;16.08;8.40;;;7.40;96.70;;;;;;4832936;29;20627;-66
2023/11/25 04:45:16;;;;;;;10.80;7.28;;;7.40;96.70;;;;;;4854435;29;20519;-67
2023/11/25 04:48:33;;;;;;;13.52;9.30;;;7.30;96.70;;;;;;4846850;29;20056;-67
2023/11/25 04:55:21;;;;;;;10.95;8.55;;;7.20;96.70;;;;;;4848077;29;20708;-67
2023/11/25 04:57:53;;;;;;;12.32;9.07;;;7.20;96.70;;;;;;4843283;29;20059;-67
2023/11/25 05:00:23;;;;;;;12.10;9.00;;;7.20;96.70;;;;;;4928959;29;20507;-67
2023/11/25 05:03:14;;;;;;;11.90;9.15;;;7.40;96.70;;;;;;4931364;29;20053;-67
2023/11/25 05:05:45;;;;;;;13.02;9.15;;;7.30;96.70;;;;;;4928485;29;20381;-67
2023/11/25 05:08:16;;;;;;;13.43;9.07;;;7.40;96.70;;;;;;4931432;29;20503;-66
2023/11/25 05:10:45;;;;;;;11.55;9.02;;;7.20;96.70;;;;;;4931991;29;20480;-67
2023/11/25 05:13:14;;;;;;;14.15;9.55;;;7.10;96.70;;;;;;4928507;29;20039;-67
2023/11/25 05:15:55;;;;;;;15.73;9.55;;;7.10;96.70;;;;;;4920729;29;20419;-66
2023/11/25 05:24:26;;;;;;;;;;;;;;;;;;;;;
2023/11/25 05:32:18;;;;;;;;;;;;;;;;;;;;;
2023/11/25 05:39:42;;;;;;;12.43;9.25;;;7.40;96.70;;;;;;4866498;29;20063;-67
2023/11/25 05:43:30;;;;;;;13.05;8.82;;;7.30;96.70;;;;;;4868448;29;20044;-66
2023/11/25 05:46:35;;;;;;;12.30;8.55;;;7.40;96.70;;;;;;4831623;29;20076;-66
2023/11/25 05:49:13;;;;;;;13.82;8.98;;;7.40;96.70;;;;;;4845472;29;20038;-67
2023/11/25 05:51:45;;;;;;;14.68;9.40;;;7.50;96.70;;;;;;4851157;29;20454;-66
2023/11/25 05:55:06;;;;;;;13.32;8.88;;;7.60;96.70;;;;;;4847950;29;20098;-66
2023/11/25 05:59:09;;;;;;;;;;;;;;;;;;;;;
2023/11/25 06:06:00;;;;;;;15.23;9.52;;;7.50;96.70;;;;;;4725621;30;20188;-66
2023/11/25 06:08:35;;;;;;;11.27;8.98;;;7.40;96.70;;;;;;4690125;30;20513;-67
2023/11/25 06:11:04;;;;;;;12.85;8.93;;;7.30;96.70;;;;;;4734713;30;20607;-66
2023/11/25 06:13:33;;;;;;;12.63;8.20;;;7.30;96.70;;;;;;4775753;30;20593;-67
2023/11/25 06:20:34;;;;;;;11.75;7.72;;;7.10;96.70;;;;;;4746185;30;20136;-66
2023/11/25 06:23:15;;;;;;;;;;;;;;;;;;;;;
2023/11/25 06:25:55;;;;;;;11.32;8.15;;;7.10;96.70;;;;;;4766959;29;20515;-66
2023/11/25 06:29:16;;;;;;;10.23;7.85;;;7.10;96.70;;;;;;4810632;29;20483;-66
2023/11/25 06:31:49;;;;;;;10.23;7.78;;;7.00;96.70;;;;;;4903394;29;20055;-66
2023/11/25 06:35:08;;;;;;;;;;;;;;;;;;;;;
2023/11/25 06:42:18;;;;;;;11.00;7.43;;;7.10;96.70;;;;;;4921760;29;20047;-66
2023/11/25 06:49:14;;;;;;;10.30;7.45;;;6.90;96.70;;;;;;4926808;29;20103;-66
2023/11/25 06:51:58;;;;;;;11.40;7.95;;;6.80;96.70;;;;;;4930181;29;20495;-66
2023/11/25 06:55:29;;;;;;;11.90;7.78;;;7.00;96.70;;;;;;4880482;29;20106;-66
2023/11/25 06:58:01;;;;;;;10.25;7.50;;;7.10;96.70;;;;;;4931196;29;20425;-67
2023/11/25 07:01:18;;;;;;;11.27;8.02;;;7.20;96.70;;;;;;4924708;29;20041;-76
2023/11/25 07:03:48;;;;;;;8.77;6.85;;;7.30;96.70;;;;;;4928364;29;20083;-69
2023/11/25 07:11:13;;;;;;;12.52;7.85;;;7.40;96.70;;;;;;4829656;29;20223;-73
2023/11/25 07:13:47;;;;;;;6.93;4.65;;;7.60;96.70;;;;;;4812817;29;20761;-68
2023/11/25 07:21:45;;;;;;;8.57;4.85;;;7.90;96.70;;;;;;4823748;29;20516;-69
2023/11/25 07:24:46;;;;;;;;;;;;;;;;;;;;;
2023/11/25 07:27:52;;;;;;;6.60;4.43;;;8.20;96.70;;;;;;4788077;29;20058;-69
2023/11/25 07:31:08;;;;;;;5.43;3.38;;;8.30;96.70;;;;;;4770827;30;20052;-69
2023/11/25 07:37:55;;;;;;;3.22;1.60;;;8.50;96.70;;;;;;4748178;30;20592;-70
2023/11/25 07:40:24;;;;;;;3.45;1.80;;;8.80;96.70;;;;;;4801676;29;20057;-70
2023/11/25 07:42:53;;;;;;;3.08;1.60;;;8.90;96.70;;;;;;4836783;29;20057;-71
2023/11/25 07:45:21;;;;;;;3.28;2.00;;;9.00;96.70;;;;;;4834296;29;20068;-70
2023/11/25 07:47:50;;;;;;;3.70;1.90;;;9.00;96.70;;;;;;4836188;29;20081;-71
2023/11/25 07:50:18;;;;;;;3.58;1.60;;;9.10;96.70;;;;;;4834312;29;20057;-71
2023/11/25 07:52:47;;;;;;;2.67;1.40;;;9.20;96.70;;;;;;4840624;29;20090;-71
2023/11/25 07:55:17;;;;;;;3.67;1.30;;;9.30;96.70;;;;;;4843795;29;20138;-70
2023/11/25 07:57:47;;;;;;;5.40;1.50;;;9.30;96.70;;;;;;4834110;29;20054;-71
2023/11/25 08:00:19;;;;;;;6.10;2.00;;;9.40;96.70;;;;;;4842031;29;20049;-71
2023/11/25 08:02:48;;;;;;;1.88;1.05;;;9.50;96.70;;;;;;4834376;29;20072;-71
2023/11/25 08:05:22;;;;;;;6.68;1.77;;;9.50;96.70;;;;;;4833932;29;20050;-71
2023/11/25 08:07:52;;;;;;;5.18;1.80;;;9.60;96.70;;;;;;4878365;29;20052;-71
2023/11/25 08:10:31;;;;;;;4.57;2.03;;;9.70;96.70;;;;;;4903004;29;20139;-71
2023/11/25 08:13:01;;;;;;;5.25;2.03;;;9.80;96.70;;;;;;4911282;29;20092;-71
2023/11/25 08:15:31;;;;;;;2.97;1.10;;;9.90;96.70;;;;;;4911447;29;20056;-71
2023/11/25 08:17:59;;;;;;;3.40;1.27;;;10.00;96.70;;;;;;4911267;29;20127;-68
2023/11/25 08:20:32;;;;;;;1.70;0.90;;;10.00;96.70;;;;;;4911303;29;20059;-69
2023/11/25 08:23:02;;;;;;;3.08;1.30;;;10.10;96.70;;;;;;4924052;29;20150;-69
2023/11/25 08:25:34;;;;;;;3.55;1.20;;;10.20;96.70;;;;;;4929199;29;20111;-69
2023/11/25 08:28:03;;;;;;;3.63;1.45;;;10.20;96.70;;;;;;4930425;29;20052;-67
2023/11/25 08:30:36;;;;;;;4.00;1.33;;;10.30;96.70;;;;;;4933089;29;20055;-72
2023/11/25 08:33:05;;;;;;;2.10;1.10;;;10.40;96.70;;;;;;4926892;29;20764;-73
2023/11/25 08:35:38;;;;;;;4.15;0.95;;;10.40;96.70;;;;;;4933880;29;20055;-73
2023/11/25 08:38:07;;;;;;;3.45;1.00;;;10.50;96.70;;;;;;4919562;29;20047;-73
2023/11/25 08:40:50;;;;;;;2.25;1.00;;;10.70;96.70;;;;;;4923721;29;20511;-70
2023/11/25 08:51:00;;;;;;;1.20;0.70;;;11.00;96.70;;;;;;4835818;29;20099;-70
2023/11/25 08:53:55;;;;;;;0.95;0.55;;;11.20;96.70;;;;;;4835388;29;20802;-70
2023/11/25 08:57:16;;;;;;;1.48;0.70;;;11.30;96.70;;;;;;4836834;29;20064;-71
2023/11/25 09:08:51;;;;;;;1.70;1.00;;;11.60;96.70;;;;;;4624114;30;20159;-70
2023/11/25 09:12:52;;;;;;;;;;;;;;;;;;;;;
2023/11/25 09:24:07;;;;;;;0.80;0.40;;;11.80;96.70;;;;;;4718923;30;20078;-73
2023/11/25 09:26:37;;;;;;;0.43;0.28;;;11.90;96.70;;;;;;4712896;30;20431;-73
2023/11/25 09:29:10;;;;;;;1.40;0.20;;;12.00;96.70;;;;;;4727333;30;20048;-73
2023/11/25 09:31:42;;;;;;;0.73;0.10;;;12.00;96.70;;;;;;4747131;30;20076;-73
2023/11/25 09:34:20;;;;;;;0.68;0.10;;;12.00;96.70;;;;;;4770000;30;20723;-71
2023/11/25 09:36:49;;;;;;;1.75;0.20;;;12.00;96.70;;;;;;4781839;30;20063;-70
2023/11/25 09:39:19;;;;;;;0.70;0.10;;;12.10;96.70;;;;;;4781171;29;20050;-72
2023/11/25 09:41:48;;;;;;;1.55;0.17;;;12.10;96.70;;;;;;4845289;29;20526;-71
2023/11/25 09:44:20;;;;;;;2.65;0.30;;;12.10;96.70;;;;;;4907842;29;20066;-70
2023/11/25 09:46:54;;;;;;;1.75;0.25;;;12.10;96.70;;;;;;4932142;29;20071;-73
2023/11/25 09:49:42;;;;;;;0.95;0.30;;;12.20;96.70;;;;;;4930613;29;20050;-66
2023/11/25 09:52:14;;;;;;;1.45;0.15;;;12.20;96.70;;;;;;4930506;29;20051;-68
2023/11/25 09:54:44;;;;;;;2.22;0.45;;;12.20;96.70;;;;;;4924272;29;20623;-67
2023/11/25 09:57:17;;;;;;;0.45;0.17;;;12.30;96.70;;;;;;4931830;29;20075;-65
2023/11/25 09:59:49;;;;;;;0.57;0.20;;;12.30;96.70;;;;;;4931658;29;20106;-68
2023/11/25 10:02:32;;;;;;;4.57;0.20;;;12.30;96.70;;;;;;4932130;29;20047;-67
2023/11/25 10:05:04;;;;;;;1.40;0.28;;;12.40;96.70;;;;;;4931577;29;20044;-70
2023/11/25 10:07:48;;;;;;;0.32;0.10;;;12.50;96.70;;;;;;4931353;29;20134;-68
2023/11/25 10:10:23;;;;;;;1.02;0.20;;;12.50;96.70;;;;;;4929054;29;20057;-70
2023/11/25 10:13:14;;;;;;;0.20;0.10;;;12.50;96.70;;;;;;4926766;29;20060;-71
2023/11/25 10:15:47;;;;;;;0.68;0.10;;;12.60;96.70;;;;;;4931764;29;20052;-72
2023/11/25 10:18:16;;;;;;;0.20;0.10;;;12.60;96.70;;;;;;4931035;29;20083;-71
2023/11/25 10:20:47;;;;;;;0.47;0.10;;;12.60;96.70;;;;;;4921861;29;20043;-72
2023/11/25 10:23:33;;;;;;;0.65;0.10;;;12.60;96.70;;;;;;4931138;29;20059;-72
2023/11/25 10:26:06;;;;;;;0.50;0.20;;;12.70;96.70;;;;;;4924395;29;20464;-74
2023/11/25 10:28:44;;;;;;;0.40;0.20;;;12.70;96.70;;;;;;4931318;29;20050;-74
2023/11/25 10:31:14;;;;;;;1.10;0.10;;;12.70;96.70;;;;;;4931832;29;20451;-72
2023/11/25 10:33:43;;;;;;;0.38;0.28;;;12.70;96.70;;;;;;4931412;29;20071;-72
2023/11/25 10:37:16;;;;;;;1.23;0.20;;;12.70;96.70;;;;;;4930237;29;20071;-70
2023/11/25 10:39:52;;;;;;;1.83;0.25;;;12.80;96.70;;;;;;4929443;29;20043;-69
2023/11/25 10:42:23;;;;;;;0.47;0.15;;;12.80;96.70;;;;;;4922385;29;20740;-68
2023/11/25 10:44:55;;;;;;;3.97;0.20;;;12.90;96.70;;;;;;4930855;29;20045;-71
2023/11/25 10:47:36;;;;;;;0.30;0.13;;;12.90;96.70;;;;;;4930677;29;20098;-70
2023/11/25 10:50:10;;;;;;;1.08;0.30;;;13.00;96.70;;;;;;4924447;29;20044;-72
2023/11/25 10:52:42;;;;;;;1.88;0.10;;;13.00;96.70;;;;;;4930950;29;20055;-69
2023/11/25 10:55:22;;;;;;;1.58;0.32;;;13.00;96.70;;;;;;4922459;29;20044;-70
2023/11/25 10:58:00;;;;;;;0.40;0.20;;;13.00;96.70;;;;;;4930420;29;20470;-70
2023/11/25 11:00:30;;;;;;;0.47;0.10;;;13.00;96.70;;;;;;4931430;29;20596;-75
2023/11/25 11:03:05;;;;;;;0.95;0.10;;;13.00;96.70;;;;;;4931704;29;20044;-74
2023/11/25 11:05:42;;;;;;;2.03;0.20;;;13.10;96.70;;;;;;4913820;29;20143;-71
2023/11/25 11:08:20;;;;;;;0.93;0.20;;;13.20;96.70;;;;;;4930287;29;20039;-70
2023/11/25 11:10:54;;;;;;;0.30;0.10;;;13.20;96.70;;;;;;4930392;29;20052;-70
2023/11/25 11:13:29;;;;;;;0.22;0.17;;;13.20;96.70;;;;;;4926276;29;20118;-70
2023/11/25 11:16:06;;;;;;;0.40;0.10;;;13.20;96.70;;;;;;4930928;29;20054;-69
2023/11/25 11:18:41;;;;;;;0.50;0.10;;;13.20;96.70;;;;;;4923317;29;20054;-69
2023/11/25 11:21:16;;;;;;;1.23;0.35;;;13.30;96.70;;;;;;4929198;29;20722;-71
2023/11/25 11:24:08;;;;;;;0.70;0.20;;;13.40;96.70;;;;;;4930590;29;20060;-70
2023/11/25 11:26:58;;;;;;;0.60;0.30;;;13.50;96.70;;;;;;4913797;29;20122;-72
2023/11/25 11:29:36;;;;;;;0.30;0.20;;;13.60;96.70;;;;;;4931057;29;20126;-70
2023/11/25 11:32:06;;;;;;;0.57;0.20;;;13.60;96.70;;;;;;4930110;29;20447;-71
2023/11/25 11:34:39;;;;;;;0.40;0.10;;;13.60;96.70;;;;;;4930466;29;20127;-71
2023/11/25 11:37:37;;;;;;;1.15;0.10;;;13.60;96.70;;;;;;4929973;29;20212;-70
2023/11/25 11:40:07;;;;;;;4.60;0.10;;;13.60;96.70;;;;;;4929958;29;20039;-68
2023/11/25 11:42:37;;;;;;;1.48;0.10;;;13.50;96.70;;;;;;4930293;29;20506;-71
2023/11/25 11:45:25;;;;;;;0.50;0.10;;;13.50;96.70;;;;;;4928470;29;20504;-70
2023/11/25 11:47:57;;;;;;;0.88;0.13;;;13.50;96.70;;;;;;4929361;29;20035;-69
2023/11/25 11:50:50;;;;;;;0.20;0.10;;;13.70;96.70;;;;;;4930911;29;20130;-68
2023/11/25 11:53:20;;;;;;;0.63;0.20;;;13.80;96.70;;;;;;4930496;29;20062;-68
2023/11/25 11:55:52;;;;;;;1.17;0.25;;;13.70;96.70;;;;;;4929413;29;20119;-69
2023/11/25 11:58:28;;;;;;;0.43;0.10;;;13.70;96.70;;;;;;4930260;29;20520;-67
2023/11/25 12:01:10;;;;;;;0.32;0.10;;;13.80;96.70;;;;;;4930698;29;20099;-69
2023/11/25 12:03:38;;;;;;;0.85;0.00;;;13.70;96.70;;;;;;4933886;29;20142;-69
2023/11/25 12:06:21;;;;;;;0.32;0.20;;;13.80;96.70;;;;;;4927482;29;20050;-70
2023/11/25 12:08:50;;;;;;;0.25;0.10;;;13.90;96.70;;;;;;4934134;29;20131;-71
2023/11/25 12:11:19;;;;;;;0.70;0.20;;;13.90;96.70;;;;;;4933632;29;20130;-71
2023/11/25 12:13:52;;;;;;;0.35;0.15;;;14.00;96.70;;;;;;4933759;29;20081;-74
2023/11/25 12:16:33;;;;;;;0.43;0.10;;;14.00;96.70;;;;;;4934578;29;20068;-75
2023/11/25 12:19:17;;;;;;;0.52;0.10;;;14.00;96.70;;;;;;4875804;29;20115;-74
2023/11/25 12:21:52;;;;;;;0.17;0.10;;;14.20;96.70;;;;;;4926891;29;20059;-75
2023/11/25 12:24:26;;;;;;;0.30;0.30;;;14.20;96.70;;;;;;4933276;29;21348;-74
2023/11/25 12:26:57;;;;;;;0.75;0.10;;;14.30;96.70;;;;;;4934405;29;20052;-76
2023/11/25 12:29:25;;;;;;;0.40;0.20;;;14.40;96.70;;;;;;4934229;29;20421;-74
2023/11/25 12:31:56;;;;;;;0.20;0.10;;;14.40;96.70;;;;;;4934264;29;20048;-73
2023/11/25 12:34:34;;;;;;;0.10;0.10;;;14.30;95.20;;;;;;4926964;29;20063;-73
2023/11/25 12:37:04;;;;;;;0.10;0.05;;;14.40;94.60;;;;;;4933274;29;20522;-70
2023/11/25 12:39:41;;;;;;;0.95;0.17;;;14.30;94.20;;;;;;4933356;29;20047;-75
2023/11/25 12:42:10;;;;;;;0.40;0.10;;;14.20;93.00;;;;;;4933298;29;20381;-74
2023/11/25 12:44:48;;;;;;;0.20;0.10;;;14.30;93.70;;;;;;4933415;29;20115;-74
2023/11/25 12:47:17;;;;;;;0.63;0.10;;;14.40;92.80;;;;;;4929874;29;20039;-73
2023/11/25 12:49:47;;;;;;;0.20;0.10;;;14.50;94.30;;;;;;4933208;29;20422;-74
2023/11/25 12:52:24;;;;;;;0.65;0.10;;;14.50;93.10;;;;;;4933236;29;20157;-74
2023/11/25 12:54:52;;;;;;;0.20;0.00;;;14.40;92.70;;;;;;4925093;29;20491;-74
2023/11/25 12:57:29;;;;;;;0.25;0.10;;;14.30;92.50;;;;;;4933057;29;20130;-74
2023/11/25 13:00:05;;;;;;;1.85;0.20;;;14.30;92.70;;;;;;4933740;29;20131;-73
2023/11/25 13:02:34;;;;;;;0.47;0.10;;;14.20;91.90;;;;;;4916766;29;20059;-72
2023/11/25 13:05:07;;;;;;;0.75;0.10;;;14.20;90.10;;;;;;4933069;29;20040;-73
2023/11/25 13:07:43;;;;;;;0.52;0.08;;;14.00;88.90;;;;;;4933449;29;20048;-66
2023/11/25 13:10:12;;;;;;;0.20;0.00;;;14.00;88.60;;;;;;4932617;29;20423;-66
2023/11/25 13:12:40;;;;;;;1.38;0.00;;;14.00;88.20;;;;;;4931929;29;20043;-66
2023/11/25 13:15:09;;;;;;;0.32;0.03;;;14.00;87.10;;;;;;4924143;29;20055;-74
2023/11/25 13:20:26;;;;;;;1.27;0.00;;;14.10;86.00;;;;;;5149474;23;20162;-66
2023/11/25 13:22:56;;;;;;;2.03;0.22;;;14.00;85.50;;;;;;4923505;29;20380;-66
2023/11/25 13:25:25;;;;;;;0.15;0.05;;;14.00;86.10;;;;;;4930939;29;20051;-64
2023/11/25 13:27:53;;;;;;;0.60;0.03;;;13.90;85.90;;;;;;4920659;29;20048;-62
2023/11/25 13:33:32;;;;;;;1.92;0.30;;;13.70;87.30;;;;;;4823806;23;20095;-79
2023/11/25 13:36:38;;;;;;;0.95;0.50;;;13.70;88.30;;;;;;4868854;29;20040;-81
2023/11/25 13:39:18;;;;;;;3.45;0.93;;;13.60;88.30;;;;;;4883796;29;20254;-68
2023/11/25 13:41:59;;;;;;;1.95;0.80;;;13.50;87.80;;;;;;5237517;23;20024;31
2023/11/25 13:44:27;;;;;;;0.98;0.47;;;13.40;89.80;;;;;;4855907;29;20144;-67
2023/11/25 13:46:57;;;;;;;2.25;0.50;;;13.40;89.80;;;;;;4860972;29;20585;-67
2023/11/25 13:49:29;;;;;;;1.30;0.85;;;13.30;90.40;;;;;;4864829;29;20467;-67
2023/11/25 13:51:59;;;;;;;0.40;0.30;;;13.30;89.30;;;;;;4865091;29;20046;-65
2023/11/25 13:54:53;;;;;;;0.43;0.20;;;13.20;88.50;;;;;;4867894;29;20618;-67
2023/11/25 13:57:21;;;;;;;0.73;0.30;;;13.20;87.30;;;;;;4860210;29;20053;-67
2023/11/25 13:59:49;;;;;;;5.65;3.45;;;13.20;87.50;;;;;;4864984;29;20056;-68
2023/11/25 14:02:20;;;;;;;2.67;0.88;;;13.20;89.70;;;;;;4858747;29;20501;-70
2023/11/25 14:04:48;;;;;;;1.15;0.50;;;13.10;89.10;;;;;;4869520;29;20050;-68
2023/11/25 14:07:19;;;;;;;1.00;0.60;;;13.10;90.90;;;;;;4861034;29;20045;-70
2023/11/25 14:09:47;;;;;;;0.90;0.40;;;13.10;91.20;;;;;;4859211;29;20120;-69
2023/11/25 14:12:16;;;;;;;2.03;0.20;;;13.00;90.40;;;;;;4862271;29;20052;-66
2023/11/25 14:14:45;;;;;;;1.08;0.50;;;13.00;89.90;;;;;;4857435;29;20124;-67
2023/11/25 14:17:16;;;;;;;1.27;0.40;;;13.00;89.40;;;;;;4861937;29;20045;-65
2023/11/25 14:19:48;;;;;;;0.90;0.40;;;13.00;88.10;;;;;;4860029;29;20069;-67
2023/11/25 14:22:18;;;;;;;1.20;0.50;;;12.90;88.10;;;;;;4858816;29;20105;-67
2023/11/25 14:24:46;;;;;;;3.13;0.47;;;12.90;88.20;;;;;;4855461;29;20038;-67
2023/11/25 14:27:16;;;;;;;0.47;0.28;;;12.90;87.90;;;;;;4859371;29;20482;-67
2023/11/25 14:29:44;;;;;;;1.48;0.20;;;12.90;88.00;;;;;;4856063;29;20041;-68
2023/11/25 14:32:13;;;;;;;0.52;0.30;;;12.90;88.40;;;;;;4859795;29;20052;-67
2023/11/25 14:34:41;;;;;;;0.30;0.20;;;12.90;89.10;;;;;;4858296;29;20068;-68
2023/11/25 14:37:09;;;;;;;1.45;0.30;;;12.80;88.90;;;;;;4861204;29;20093;-67
2023/11/25 14:39:38;;;;;;;0.40;0.13;;;12.80;89.20;;;;;;4860973;29;20782;-66
2023/11/25 14:42:19;;;;;;;0.93;0.20;;;12.80;89.80;;;;;;4870932;29;20124;-69
2023/11/25 14:44:50;;;;;;;0.77;0.30;;;12.80;90.70;;;;;;4860480;29;20042;-69
2023/11/25 14:47:18;;;;;;;1.00;0.40;;;12.80;91.30;;;;;;4855535;29;20128;-69
2023/11/25 14:49:47;;;;;;;1.88;0.43;;;12.80;95.10;;;;;;4858263;29;20121;-68
2023/11/25 14:52:18;;;;;;;7.18;0.70;;;12.80;95.40;;;;;;4866911;29;20126;-70
2023/11/25 14:54:48;;;;;;;3.17;0.28;;;12.70;94.70;;;;;;4863076;29;20049;-68
2023/11/25 14:57:19;;;;;;;1.42;0.20;;;12.70;93.10;;;;;;4860269;29;20533;-68
2023/11/25 14:59:47;;;;;;;0.55;0.30;;;12.60;91.50;;;;;;4869646;29;20064;-69
2023/11/25 15:02:15;;;;;;;0.63;0.30;;;12.60;90.80;;;;;;4875243;29;20505;-68
2023/11/25 15:04:44;;;;;;;0.93;0.20;;;12.50;92.80;;;;;;4861629;29;20046;-69
2023/11/25 15:07:12;;;;;;;0.55;0.30;;;12.50;93.70;;;;;;4855029;29;20080;-68
2023/11/25 15:09:43;;;;;;;1.15;0.50;;;12.50;93.80;;;;;;4854828;29;20064;-69
2023/11/25 15:12:11;;;;;;;0.65;0.35;;;12.50;93.40;;;;;;4856459;29;20065;-68
2023/11/25 15:14:41;;;;;;;2.30;0.55;;;12.40;93.80;;;;;;4855939;29;20049;-69
2023/11/25 15:17:09;;;;;;;1.70;0.40;;;12.40;94.30;;;;;;4869035;29;20413;-68
2023/11/25 15:19:44;;;;;;;2.45;0.85;;;12.50;94.50;;;;;;4854877;29;20097;-68
2023/11/25 15:22:13;;;;;;;2.25;0.60;;;12.90;93.80;;;;;;4857258;29;20053;-70
2023/11/25 15:24:41;;;;;;;0.98;0.30;;;12.90;93.00;;;;;;4866328;29;20069;-69
2023/11/25 15:27:12;;;;;;;1.95;0.60;;;12.60;94.40;;;;;;4860775;29;20145;-69
2023/11/25 15:29:42;;;;;;;1.10;0.50;;;12.40;95.40;;;;;;4857703;29;20069;-69
2023/11/25 15:32:11;;;;;;;1.45;0.80;;;12.30;94.20;;;;;;4858484;29;20040;-68
2023/11/25 15:34:39;;;;;;;1.52;0.85;;;12.20;94.20;;;;;;4857791;29;20129;-68
2023/11/25 15:37:09;;;;;;;1.85;1.00;;;12.10;94.70;;;;;;4854705;29;20057;-69
2023/11/25 15:39:37;;;;;;;2.28;1.27;;;12.00;94.70;;;;;;4857530;29;20057;-68
2023/11/25 15:42:06;;;;;;;2.47;0.80;;;12.00;93.70;;;;;;4855623;29;20056;-68
2023/11/25 15:44:36;;;;;;;3.08;0.90;;;11.90;93.60;;;;;;4852998;29;20072;-70
2023/11/25 15:47:06;;;;;;;1.40;0.60;;;11.80;94.40;;;;;;4857265;29;20038;-69
2023/11/25 15:49:35;;;;;;;2.88;0.98;;;11.80;95.00;;;;;;4855231;29;20045;-69
2023/11/25 15:52:04;;;;;;;2.10;1.00;;;11.70;95.60;;;;;;4855860;29;20505;-68
2023/11/25 15:54:32;;;;;;;1.65;1.00;;;11.60;96.20;;;;;;4852091;29;20382;-69
2023/11/25 15:57:01;;;;;;;3.28;0.98;;;11.60;96.70;;;;;;4859506;29;20041;-69
2023/11/25 15:59:30;;;;;;;2.38;1.25;;;11.50;96.70;;;;;;4854852;29;20076;-69
2023/11/25 16:01:58;;;;;;;1.60;0.80;;;11.50;96.70;;;;;;4854626;29;20469;-68
2023/11/25 16:04:28;;;;;;;4.20;2.28;;;11.40;96.70;;;;;;4857411;29;20053;-69
2023/11/25 16:06:56;;;;;;;2.97;1.95;;;11.30;96.70;;;;;;4852749;29;20109;-68
2023/11/25 16:09:26;;;;;;;2.28;1.60;;;11.30;96.70;;;;;;4854297;29;20117;-67
2023/11/25 16:11:55;;;;;;;3.55;2.30;;;11.30;96.70;;;;;;4858700;29;20037;-69
2023/11/25 16:14:23;;;;;;;4.45;2.00;;;11.30;96.70;;;;;;4864920;29;20475;-68